createdAt,value
2022-12-28T00:01:09.317Z,62.03
2022-12-28T00:03:35.975Z,61.92
2022-12-28T00:06:03.033Z,61.53
2022-12-28T00:08:29.748Z,62.08
2022-12-28T00:11:08.176Z,62.19
2022-12-28T00:13:37.101Z,61.60
2022-12-28T00:16:45.077Z,61.74
2022-12-28T00:19:16.612Z,62.01
2022-12-28T00:21:43.852Z,61.98
2022-12-28T00:24:19.279Z,62.20
2022-12-28T00:26:45.937Z,62.12
2022-12-28T00:29:12.567Z,61.90
2022-12-28T00:31:39.285Z,61.76
2022-12-28T00:34:05.955Z,62.06
2022-12-28T00:37:08.658Z,62.17
2022-12-28T00:39:22.179Z,62.01
2022-12-28T00:41:48.818Z,61.73
2022-12-28T00:44:15.412Z,61.61
2022-12-28T00:46:42.031Z,61.97
2022-12-28T00:49:08.713Z,62.42
2022-12-28T00:51:35.567Z,62.11
2022-12-28T00:54:02.185Z,62.11
2022-12-28T00:56:28.784Z,62.05
2022-12-28T00:58:56.535Z,62.30
2022-12-28T01:01:23.362Z,62.13
2022-12-28T01:03:50.080Z,62.72
2022-12-28T01:06:17.952Z,62.27
2022-12-28T01:08:44.614Z,62.06
2022-12-28T01:11:21.369Z,62.63
2022-12-28T01:13:48.747Z,62.25
2022-12-28T01:16:17.161Z,63.17
2022-12-28T01:18:44.160Z,62.74
2022-12-28T01:21:16.109Z,62.32
2022-12-28T01:23:43.509Z,62.93
2022-12-28T01:26:10.120Z,62.92
2022-12-28T01:28:36.819Z,62.98
2022-12-28T01:31:08.211Z,63.22
2022-12-28T01:33:34.856Z,63.14
2022-12-28T01:36:09.042Z,63.00
2022-12-28T01:38:36.321Z,62.79
2022-12-28T01:41:03.132Z,63.10
2022-12-28T01:43:40.895Z,62.62
2022-12-28T01:46:12.391Z,62.43
2022-12-28T01:48:42.228Z,63.17
2022-12-28T01:51:08.879Z,62.82
2022-12-28T01:53:35.625Z,63.20
2022-12-28T01:56:02.274Z,62.45
2022-12-28T01:58:30.085Z,62.93
2022-12-28T02:00:56.841Z,62.61
2022-12-28T02:03:25.824Z,63.05
2022-12-28T02:05:54.386Z,63.33
2022-12-28T02:08:32.228Z,63.62
2022-12-28T02:10:58.862Z,63.45
2022-12-28T02:13:25.494Z,62.88
2022-12-28T02:15:52.094Z,62.76
2022-12-28T02:18:19.305Z,62.85
2022-12-28T02:21:09.948Z,62.23
2022-12-28T02:23:47.275Z,62.33
2022-12-28T02:26:38.741Z,62.79
2022-12-28T02:29:05.255Z,62.78
2022-12-28T02:32:09.442Z,62.25
2022-12-28T02:35:04.016Z,62.37
2022-12-28T02:37:38.275Z,62.84
2022-12-28T02:40:31.393Z,63.36
2022-12-28T02:42:58.030Z,62.55
2022-12-28T02:45:33.639Z,62.82
2022-12-28T02:48:00.261Z,62.98
2022-12-28T02:50:27.843Z,62.73
2022-12-28T02:53:19.294Z,62.67
2022-12-28T02:56:07.725Z,62.40
2022-12-28T02:58:58.460Z,62.80
2022-12-28T03:01:31.093Z,63.03
2022-12-28T03:04:16.147Z,62.30
2022-12-28T03:07:04.554Z,62.94
2022-12-28T03:09:41.759Z,62.57
2022-12-28T03:12:23.342Z,62.59
2022-12-28T03:14:56.446Z,63.29
2022-12-28T03:17:24.033Z,63.23
2022-12-28T03:19:54.348Z,63.15
2022-12-28T03:22:20.964Z,62.65
2022-12-28T03:24:47.653Z,63.08
2022-12-28T03:27:14.675Z,62.77
2022-12-28T03:29:44.594Z,62.72
2022-12-28T03:32:11.475Z,63.10
2022-12-28T03:34:38.295Z,63.60
2022-12-28T03:37:14.767Z,63.37
2022-12-28T03:39:48.220Z,63.10
2022-12-28T03:42:22.232Z,63.46
2022-12-28T03:44:54.584Z,63.53
2022-12-28T03:47:21.243Z,62.92
2022-12-28T03:49:47.880Z,62.93
2022-12-28T03:52:14.549Z,63.21
2022-12-28T03:54:41.206Z,63.34
2022-12-28T03:57:07.885Z,63.30
2022-12-28T03:59:34.508Z,63.23
2022-12-28T04:02:01.321Z,63.35
2022-12-28T04:04:28.041Z,63.27
2022-12-28T04:06:54.692Z,63.26
2022-12-28T04:09:21.329Z,63.32
2022-12-28T04:11:47.959Z,63.22
2022-12-28T04:14:14.614Z,63.40
2022-12-28T04:16:41.249Z,63.79
2022-12-28T04:19:08.020Z,63.65
2022-12-28T04:21:34.616Z,64.19
2022-12-28T04:24:01.283Z,63.92
2022-12-28T04:26:27.987Z,63.50
2022-12-28T04:28:54.673Z,63.43
2022-12-28T04:31:21.387Z,63.33
2022-12-28T04:33:48.139Z,63.06
2022-12-28T04:36:15.589Z,63.31
2022-12-28T04:38:42.239Z,63.72
2022-12-28T04:41:09.468Z,63.75
2022-12-28T04:43:36.225Z,63.74
2022-12-28T04:46:04.513Z,63.61
2022-12-28T04:48:31.430Z,63.74
2022-12-28T04:50:58.070Z,64.11
2022-12-28T04:53:24.715Z,63.72
2022-12-28T04:55:51.318Z,63.73
2022-12-28T04:58:17.916Z,63.88
2022-12-28T05:00:44.607Z,63.34
2022-12-28T05:03:13.322Z,63.88
2022-12-28T05:05:42.022Z,63.66
2022-12-28T05:08:08.731Z,63.33
2022-12-28T05:10:35.583Z,63.16
2022-12-28T05:13:02.223Z,63.18
2022-12-28T05:15:28.913Z,63.57
2022-12-28T05:17:55.552Z,63.18
2022-12-28T05:20:22.163Z,63.38
2022-12-28T05:22:48.805Z,62.95
2022-12-28T05:25:15.518Z,62.95
2022-12-28T05:27:42.175Z,63.30
2022-12-28T05:30:09.298Z,63.78
2022-12-28T05:32:35.944Z,63.54
2022-12-28T05:35:02.546Z,63.30
2022-12-28T05:37:29.135Z,63.33
2022-12-28T05:39:55.725Z,63.55
2022-12-28T05:42:22.580Z,63.01
2022-12-28T05:44:49.347Z,62.36
2022-12-28T05:47:15.978Z,63.21
2022-12-28T05:49:42.594Z,62.99
2022-12-28T05:52:09.194Z,63.42
2022-12-28T05:54:35.796Z,63.34
2022-12-28T05:57:02.392Z,62.59
2022-12-28T05:59:29.122Z,62.97
2022-12-28T06:01:55.945Z,62.53
2022-12-28T06:04:22.690Z,62.98
2022-12-28T06:06:49.402Z,62.55
2022-12-28T06:09:16.006Z,62.03
2022-12-28T06:11:42.629Z,62.43
2022-12-28T06:14:09.284Z,61.35
2022-12-28T06:16:38.700Z,63.01
2022-12-28T06:19:07.109Z,63.62
2022-12-28T06:21:34.298Z,63.71
2022-12-28T06:24:01.004Z,62.52
2022-12-28T06:26:28.891Z,62.60
2022-12-28T06:28:55.606Z,60.46
2022-12-28T06:31:26.658Z,60.19
2022-12-28T06:33:54.512Z,59.72
2022-12-28T06:36:22.518Z,60.40
2022-12-28T06:38:49.617Z,59.99
2022-12-28T06:41:16.811Z,60.43
2022-12-28T06:43:43.624Z,58.75
2022-12-28T06:46:10.828Z,59.43
2022-12-28T06:48:37.602Z,61.76
2022-12-28T06:51:09.834Z,60.77
2022-12-28T06:53:37.030Z,60.42
2022-12-28T06:56:08.287Z,60.01
2022-12-28T06:58:34.910Z,61.79
2022-12-28T07:01:13.917Z,61.94
2022-12-28T07:03:41.045Z,61.57
2022-12-28T07:06:07.693Z,61.68
2022-12-28T07:08:34.305Z,61.40
2022-12-28T07:11:07.652Z,62.11
2022-12-28T07:13:34.289Z,61.58
2022-12-28T07:16:05.360Z,61.26
2022-12-28T07:18:32.655Z,60.69
2022-12-28T07:21:04.099Z,61.02
2022-12-28T07:23:30.746Z,61.54
2022-12-28T07:25:57.932Z,61.57
2022-12-28T07:28:24.784Z,61.22
2022-12-28T07:30:51.466Z,60.52
2022-12-28T07:33:18.113Z,61.12
2022-12-28T07:35:44.761Z,61.03
2022-12-28T07:38:11.764Z,61.10
2022-12-28T07:40:38.722Z,61.03
2022-12-28T07:43:05.363Z,61.41
2022-12-28T07:45:32.144Z,60.87
2022-12-28T07:47:58.805Z,60.37
2022-12-28T07:50:25.485Z,59.37
2022-12-28T07:52:52.083Z,59.58
2022-12-28T07:55:18.746Z,59.85
2022-12-28T07:57:45.494Z,60.37
2022-12-28T08:00:12.453Z,60.05
2022-12-28T08:02:40.174Z,59.64
2022-12-28T08:05:07.164Z,59.89
2022-12-28T08:07:33.814Z,59.32
2022-12-28T08:10:00.427Z,59.01
2022-12-28T08:12:27.011Z,58.46
2022-12-28T08:14:53.610Z,56.87
2022-12-28T08:17:21.305Z,57.62
2022-12-28T08:19:48.111Z,57.40
2022-12-28T08:22:14.742Z,58.79
2022-12-28T08:24:41.367Z,59.41
2022-12-28T08:27:08.007Z,58.93
2022-12-28T08:29:34.704Z,59.40
2022-12-28T08:32:01.297Z,60.00
2022-12-28T08:34:27.914Z,59.64
2022-12-28T08:36:55.214Z,59.12
2022-12-28T08:39:21.872Z,59.05
2022-12-28T08:41:48.533Z,59.14
2022-12-28T08:44:15.182Z,59.55
2022-12-28T08:46:41.985Z,59.92
2022-12-28T08:49:08.733Z,59.08
2022-12-28T08:51:39.770Z,59.31
2022-12-28T08:54:06.780Z,57.99
2022-12-28T08:56:34.966Z,57.32
2022-12-28T08:59:02.074Z,57.87
2022-12-28T09:01:47.193Z,57.74
2022-12-28T09:04:22.419Z,57.48
2022-12-28T09:06:49.202Z,57.29
2022-12-28T09:09:16.496Z,57.25
2022-12-28T09:11:43.234Z,56.09
2022-12-28T09:14:10.863Z,55.74
2022-12-28T09:16:37.773Z,55.06
2022-12-28T09:19:05.602Z,56.08
2022-12-28T09:21:35.001Z,56.12
2022-12-28T09:24:01.654Z,56.54
2022-12-28T09:26:30.010Z,56.92
2022-12-28T09:29:01.145Z,57.55
2022-12-28T09:31:29.466Z,57.09
2022-12-28T09:36:43.784Z,57.00
2022-12-28T09:39:12.227Z,57.05
2022-12-28T09:41:52.592Z,57.05
2022-12-28T09:44:48.252Z,57.19
2022-12-28T09:47:33.176Z,57.63
2022-12-28T09:50:17.704Z,57.97
2022-12-28T09:53:23.070Z,57.71
2022-12-28T09:56:05.494Z,57.33
2022-12-28T09:58:33.300Z,56.67
2022-12-28T10:01:00.856Z,56.86
2022-12-28T10:03:36.474Z,56.71
2022-12-28T10:06:03.591Z,56.64
2022-12-28T10:08:30.248Z,56.55
2022-12-28T10:11:00.264Z,55.94
2022-12-28T10:13:53.440Z,56.11
2022-12-28T10:16:18.942Z,56.06
2022-12-28T10:18:45.946Z,56.00
2022-12-28T10:21:12.793Z,55.19
2022-12-28T10:23:56.858Z,55.34
2022-12-28T10:26:25.985Z,55.25
2022-12-28T10:28:54.393Z,55.39
2022-12-28T10:31:34.151Z,53.85
2022-12-28T10:34:01.003Z,53.47
2022-12-28T10:36:31.905Z,53.70
2022-12-28T10:38:58.581Z,53.19
2022-12-28T10:41:37.605Z,54.03
2022-12-28T10:44:39.084Z,53.20
2022-12-28T10:47:22.476Z,51.63
2022-12-28T10:52:37.590Z,49.95
2022-12-28T10:55:28.857Z,51.52
2022-12-28T10:58:27.916Z,51.99
2022-12-28T11:00:45.657Z,52.14
2022-12-28T11:03:18.116Z,50.91
2022-12-28T11:05:44.858Z,50.55
2022-12-28T11:08:13.319Z,50.24
2022-12-28T11:10:39.963Z,52.13
2022-12-28T11:13:16.994Z,50.91
2022-12-28T11:15:48.181Z,49.82
2022-12-28T11:18:16.252Z,49.43
2022-12-28T11:20:45.270Z,50.35
2022-12-28T11:23:21.980Z,49.44
2022-12-28T11:25:48.613Z,48.61
2022-12-28T11:28:19.257Z,49.46
2022-12-28T11:30:49.800Z,49.20
2022-12-28T11:33:28.703Z,49.84
2022-12-28T11:35:59.576Z,49.50
2022-12-28T11:38:45.389Z,47.93
2022-12-28T11:41:27.558Z,48.86
2022-12-28T11:43:59.300Z,47.65
2022-12-28T11:46:25.851Z,47.69
2022-12-28T11:49:00.135Z,45.49
2022-12-28T11:51:30.931Z,44.62
2022-12-28T11:53:58.576Z,44.80
2022-12-28T11:56:43.680Z,45.63
2022-12-28T11:59:31.124Z,44.35
2022-12-28T12:01:59.581Z,45.74
2022-12-28T12:04:37.265Z,44.46
2022-12-28T12:07:03.783Z,44.06
2022-12-28T12:09:32.998Z,45.59
2022-12-28T12:12:00.886Z,46.44
2022-12-28T12:14:31.228Z,43.00
2022-12-28T12:17:03.735Z,43.12
2022-12-28T12:19:35.304Z,45.15
2022-12-28T12:22:23.389Z,43.95
2022-12-28T12:24:56.803Z,44.22
2022-12-28T12:27:30.580Z,44.33
2022-12-28T12:30:00.161Z,43.60
2022-12-28T12:32:58.433Z,43.77
2022-12-28T12:35:29.548Z,46.65
2022-12-28T12:38:04.404Z,44.36
2022-12-28T12:41:22.244Z,44.96
2022-12-28T12:44:15.218Z,44.31
2022-12-28T12:47:15.301Z,44.69
2022-12-28T12:50:09.108Z,45.36
2022-12-28T12:52:53.757Z,43.55
2022-12-28T12:55:29.431Z,43.43
2022-12-28T12:58:03.489Z,43.33
2022-12-28T13:00:49.083Z,45.19
2022-12-28T13:03:33.880Z,42.72
2022-12-28T13:06:00.505Z,43.43
2022-12-28T13:08:39.487Z,44.16
2022-12-28T13:11:09.065Z,43.15
2022-12-28T13:13:37.526Z,44.45
2022-12-28T13:16:05.587Z,44.93
2022-12-28T13:18:47.583Z,45.98
2022-12-28T13:21:18.782Z,46.01
2022-12-28T13:23:45.417Z,45.15
2022-12-28T13:26:12.823Z,45.51
2022-12-28T13:28:39.426Z,46.66
2022-12-28T13:31:10.089Z,46.04
2022-12-28T13:33:37.260Z,45.36
2022-12-28T13:36:11.167Z,45.87
2022-12-28T13:38:37.855Z,45.47
2022-12-28T13:41:04.559Z,44.15
2022-12-28T13:44:14.220Z,47.24
2022-12-28T13:46:41.935Z,47.55
2022-12-28T13:49:08.552Z,48.55
2022-12-28T13:51:36.656Z,48.88
2022-12-28T13:54:03.308Z,48.26
2022-12-28T13:56:30.042Z,51.75
2022-12-28T13:59:18.584Z,49.74
2022-12-28T14:01:47.015Z,50.24
2022-12-28T14:04:51.274Z,48.96
2022-12-28T14:07:01.983Z,49.58
2022-12-28T14:09:28.607Z,48.69
2022-12-28T14:11:55.251Z,48.71
2022-12-28T14:14:21.909Z,48.80
2022-12-28T14:16:48.576Z,49.92
2022-12-28T14:19:15.270Z,51.49
2022-12-28T14:21:45.129Z,52.58
2022-12-28T14:24:13.693Z,55.74
2022-12-28T14:26:48.536Z,51.22
2022-12-28T14:29:21.729Z,49.24
2022-12-28T14:31:48.371Z,50.18
2022-12-28T14:34:27.520Z,52.12
2022-12-28T14:36:54.152Z,53.08
2022-12-28T14:39:33.686Z,51.11
2022-12-28T14:42:00.665Z,51.03
2022-12-28T14:44:33.897Z,54.61
2022-12-28T14:47:00.595Z,51.36
2022-12-28T14:49:32.898Z,52.89
2022-12-28T14:52:08.205Z,51.37
2022-12-28T14:54:45.019Z,53.85
2022-12-28T14:57:32.666Z,51.33
2022-12-28T15:00:02.038Z,52.42
2022-12-28T15:02:38.100Z,52.43
2022-12-28T15:05:05.671Z,53.24
2022-12-28T15:07:32.469Z,48.96
2022-12-28T15:10:00.188Z,51.50
2022-12-28T15:12:27.087Z,47.32
2022-12-28T15:14:53.734Z,50.67
2022-12-28T15:17:20.394Z,49.49
2022-12-28T15:19:47.038Z,52.02
2022-12-28T15:22:13.743Z,50.18
2022-12-28T15:24:40.431Z,50.51
2022-12-28T15:27:07.109Z,51.10
2022-12-28T15:32:20.421Z,51.46
2022-12-28T15:34:47.089Z,52.06
2022-12-28T15:37:13.750Z,49.15
2022-12-28T15:39:40.335Z,48.80
2022-12-28T15:42:07.037Z,48.76
2022-12-28T15:44:33.663Z,50.12
2022-12-28T15:47:00.354Z,48.65
2022-12-28T15:49:27.075Z,49.81
2022-12-28T15:51:53.700Z,50.94
2022-12-28T15:54:20.318Z,50.51
2022-12-28T15:56:52.225Z,46.58
2022-12-28T15:59:18.844Z,53.15
2022-12-28T16:01:45.655Z,49.26
2022-12-28T16:04:12.571Z,47.08
2022-12-28T16:06:44.214Z,48.41
2022-12-28T16:09:11.859Z,49.41
2022-12-28T16:11:38.501Z,52.17
2022-12-28T16:14:06.447Z,48.16
2022-12-28T16:16:39.157Z,50.24
2022-12-28T16:19:05.862Z,48.60
2022-12-28T16:21:32.508Z,49.44
2022-12-28T16:23:59.391Z,49.59
2022-12-28T16:26:26.032Z,46.07
2022-12-28T16:28:52.672Z,48.00
2022-12-28T16:31:27.327Z,51.80
2022-12-28T16:34:13.243Z,48.14
2022-12-28T16:36:40.092Z,46.27
2022-12-28T16:39:09.095Z,46.42
2022-12-28T16:41:37.074Z,50.55
2022-12-28T16:44:15.974Z,48.92
2022-12-28T16:46:42.611Z,44.92
2022-12-28T16:49:09.718Z,47.43
2022-12-28T16:51:37.561Z,49.50
2022-12-28T16:54:04.740Z,48.63
2022-12-28T16:56:31.394Z,49.03
2022-12-28T16:58:58.383Z,46.34
2022-12-28T17:01:25.285Z,47.27
2022-12-28T17:03:51.995Z,47.64
2022-12-28T17:06:18.644Z,49.24
2022-12-28T17:08:45.292Z,47.67
2022-12-28T17:11:12.181Z,50.43
2022-12-28T17:13:38.947Z,51.53
2022-12-28T17:16:06.531Z,49.31
2022-12-28T17:18:33.229Z,49.48
2022-12-28T17:21:04.888Z,51.80
2022-12-28T17:23:33.449Z,51.36
2022-12-28T17:26:00.097Z,50.61
2022-12-28T17:28:26.707Z,52.26
2022-12-28T17:31:03.872Z,52.80
2022-12-28T17:33:34.082Z,50.25
2022-12-28T17:36:05.834Z,53.20
2022-12-28T17:38:32.489Z,51.64
2022-12-28T17:40:59.147Z,52.19
2022-12-28T17:43:25.748Z,49.80
2022-12-28T17:45:52.534Z,51.14
2022-12-28T17:48:19.265Z,52.30
2022-12-28T17:50:47.090Z,52.05
2022-12-28T17:53:13.814Z,54.32
2022-12-28T17:55:40.489Z,51.31
2022-12-28T17:58:07.142Z,51.25
2022-12-28T18:00:33.753Z,53.76
2022-12-28T18:03:00.829Z,56.42
2022-12-28T18:05:27.590Z,51.53
2022-12-28T18:07:54.242Z,53.09
2022-12-28T18:10:20.834Z,52.00
2022-12-28T18:12:47.612Z,55.72
2022-12-28T18:15:14.245Z,54.77
2022-12-28T18:17:40.844Z,52.34
2022-12-28T18:20:08.061Z,51.58
2022-12-28T18:22:34.704Z,53.09
2022-12-28T18:25:01.351Z,53.05
2022-12-28T18:27:27.987Z,53.74
2022-12-28T18:29:54.646Z,51.27
2022-12-28T18:32:21.309Z,51.72
2022-12-28T18:34:47.905Z,52.47
2022-12-28T18:37:14.534Z,52.63
2022-12-28T18:39:41.135Z,55.38
2022-12-28T18:42:07.741Z,54.00
2022-12-28T18:44:34.372Z,53.01
2022-12-28T18:47:01.064Z,53.33
2022-12-28T18:49:27.724Z,55.50
2022-12-28T18:51:54.457Z,53.95
2022-12-28T18:54:21.092Z,54.25
2022-12-28T18:56:47.708Z,51.90
2022-12-28T18:59:14.310Z,53.47
2022-12-28T19:02:06.352Z,52.97
2022-12-28T19:04:27.736Z,54.94
2022-12-28T19:06:54.558Z,53.89
2022-12-28T19:09:22.007Z,54.19
2022-12-28T19:11:48.661Z,53.85
2022-12-28T19:14:15.550Z,56.52
2022-12-28T19:16:42.307Z,55.90
2022-12-28T19:19:09.064Z,53.74
2022-12-28T19:21:39.857Z,54.56
2022-12-28T19:24:10.287Z,57.27
2022-12-28T19:26:36.968Z,55.91
2022-12-28T19:29:03.879Z,56.59
2022-12-28T19:31:30.865Z,57.35
2022-12-28T19:33:57.582Z,57.54
2022-12-28T19:36:24.324Z,56.56
2022-12-28T19:38:53.081Z,56.24
2022-12-28T19:41:19.950Z,56.69
2022-12-28T19:43:46.565Z,55.58
2022-12-28T19:46:17.351Z,55.95
2022-12-28T19:48:44.067Z,54.41
2022-12-28T19:51:11.773Z,55.23
2022-12-28T19:53:38.388Z,56.36
2022-12-28T19:56:10.939Z,54.62
2022-12-28T19:58:37.697Z,56.68
2022-12-28T20:01:07.797Z,56.44
2022-12-28T20:03:34.655Z,55.99
2022-12-28T20:06:11.447Z,55.03
2022-12-28T20:08:38.164Z,56.01
2022-12-28T20:11:05.071Z,56.45
2022-12-28T20:13:32.129Z,55.55
2022-12-28T20:15:58.869Z,57.35
2022-12-28T20:18:25.467Z,57.05
2022-12-28T20:21:18.570Z,56.36
2022-12-28T20:23:38.789Z,57.00
2022-12-28T20:26:05.481Z,57.47
2022-12-28T20:28:32.104Z,56.57
2022-12-28T20:31:02.458Z,57.25
2022-12-28T20:33:30.358Z,56.65
2022-12-28T20:36:04.301Z,58.48
2022-12-28T20:38:30.924Z,57.89
2022-12-28T20:41:19.527Z,57.28
2022-12-28T20:43:46.142Z,57.30
2022-12-28T20:46:12.947Z,58.03
2022-12-28T20:48:39.596Z,58.09
2022-12-28T20:51:06.243Z,59.26
2022-12-28T20:53:32.842Z,58.50
2022-12-28T20:56:06.801Z,56.71
2022-12-28T20:58:34.592Z,58.60
2022-12-28T21:01:08.872Z,57.45
2022-12-28T21:03:35.824Z,58.61
2022-12-28T21:06:02.498Z,57.21
2022-12-28T21:08:31.101Z,57.04
2022-12-28T21:10:57.923Z,56.80
2022-12-28T21:13:24.558Z,56.62
2022-12-28T21:15:52.648Z,58.03
2022-12-28T21:18:19.586Z,57.07
2022-12-28T21:20:53.250Z,58.52
2022-12-28T21:23:19.847Z,57.35
2022-12-28T21:25:46.452Z,57.20
2022-12-28T21:28:13.066Z,56.44
2022-12-28T21:30:39.672Z,57.00
2022-12-28T21:33:06.321Z,57.73
2022-12-28T21:35:34.587Z,58.20
2022-12-28T21:38:01.607Z,57.77
2022-12-28T21:40:28.273Z,57.03
2022-12-28T21:42:54.865Z,57.08
2022-12-28T21:45:21.563Z,57.98
2022-12-28T21:47:48.298Z,57.49
2022-12-28T21:50:14.916Z,57.03
2022-12-28T21:52:41.606Z,57.71
2022-12-28T21:55:08.421Z,57.41
2022-12-28T21:57:35.531Z,58.32
2022-12-28T22:00:02.282Z,57.60
2022-12-28T22:02:29.145Z,57.11
2022-12-28T22:05:02.223Z,57.96
2022-12-28T22:07:29.807Z,57.90
2022-12-28T22:09:57.215Z,59.92
2022-12-28T22:12:24.284Z,58.54
2022-12-28T22:14:50.927Z,58.38
2022-12-28T22:17:17.535Z,59.62
2022-12-28T22:19:44.223Z,58.81
2022-12-28T22:22:10.867Z,59.78
2022-12-28T22:24:37.538Z,59.99
2022-12-28T22:27:04.193Z,59.16
2022-12-28T22:29:30.854Z,60.13
2022-12-28T22:31:57.506Z,59.14
2022-12-28T22:34:24.197Z,59.84
2022-12-28T22:36:50.814Z,58.31
2022-12-28T22:39:17.482Z,58.58
2022-12-28T22:41:44.152Z,58.72
2022-12-28T22:44:10.772Z,58.29
2022-12-28T22:46:37.480Z,58.57
2022-12-28T22:49:04.322Z,59.24
2022-12-28T22:51:30.955Z,58.64
2022-12-28T22:53:57.544Z,59.18
2022-12-28T22:56:24.257Z,56.81
2022-12-28T22:58:50.885Z,58.74
2022-12-28T23:01:18.932Z,57.64
2022-12-28T23:03:46.767Z,57.90
2022-12-28T23:06:15.008Z,57.00
2022-12-28T23:08:41.655Z,56.68
2022-12-28T23:11:10.175Z,56.51
2022-12-28T23:13:36.829Z,56.32
2022-12-28T23:16:04.501Z,55.68
2022-12-28T23:18:31.294Z,54.72
2022-12-28T23:20:58.223Z,54.29
2022-12-28T23:23:24.859Z,53.81
2022-12-28T23:25:51.450Z,54.25
2022-12-28T23:28:18.033Z,53.03
2022-12-28T23:30:46.578Z,53.91
2022-12-28T23:33:13.436Z,53.14
2022-12-28T23:35:40.054Z,53.16
2022-12-28T23:38:06.733Z,53.21
2022-12-28T23:40:33.387Z,53.12
2022-12-28T23:43:00.046Z,52.67
2022-12-28T23:45:26.750Z,53.50
2022-12-28T23:47:53.446Z,52.70
2022-12-28T23:50:20.064Z,52.96
2022-12-28T23:52:46.720Z,53.04
2022-12-28T23:55:13.409Z,54.09
2022-12-28T23:57:40.675Z,53.98
